sensor_id;sensor_type;location;lat;lon;timestamp;P1;durP1;ratioP1;P2;durP2;ratioP2
46731;SDS011;32477;51.474;5.696;2022-12-07T00:02:05;51.45;;;19.58;;
46731;SDS011;32477;51.474;5.696;2022-12-07T00:04:30;45.22;;;19.67;;
46731;SDS011;32477;51.474;5.696;2022-12-07T00:06:56;42.60;;;19.55;;
46731;SDS011;32477;51.474;5.696;2022-12-07T00:09:22;40.92;;;20.48;;
46731;SDS011;32477;51.474;5.696;2022-12-07T00:11:48;48.92;;;19.85;;
46731;SDS011;32477;51.474;5.696;2022-12-07T00:14:15;47.15;;;21.45;;
46731;SDS011;32477;51.474;5.696;2022-12-07T00:16:42;43.95;;;21.27;;
46731;SDS011;32477;51.474;5.696;2022-12-07T00:19:09;45.08;;;20.65;;
46731;SDS011;32477;51.474;5.696;2022-12-07T00:21:36;45.25;;;20.85;;
46731;SDS011;32477;51.474;5.696;2022-12-07T00:24:02;57.47;;;21.13;;
46731;SDS011;32477;51.474;5.696;2022-12-07T00:26:34;48.88;;;21.88;;
46731;SDS011;32477;51.474;5.696;2022-12-07T00:29:05;53.58;;;20.83;;
46731;SDS011;32477;51.474;5.696;2022-12-07T00:31:41;53.13;;;20.80;;
46731;SDS011;32477;51.474;5.696;2022-12-07T00:34:09;51.25;;;21.67;;
46731;SDS011;32477;51.474;5.696;2022-12-07T00:36:38;48.05;;;21.75;;
46731;SDS011;32477;51.474;5.696;2022-12-07T00:39:03;57.33;;;22.08;;
46731;SDS011;32477;51.474;5.696;2022-12-07T00:41:29;52.00;;;22.85;;
46731;SDS011;32477;51.474;5.696;2022-12-07T00:43:55;60.28;;;21.98;;
46731;SDS011;32477;51.474;5.696;2022-12-07T00:46:21;52.17;;;21.00;;
46731;SDS011;32477;51.474;5.696;2022-12-07T00:48:48;55.75;;;22.65;;
46731;SDS011;32477;51.474;5.696;2022-12-07T00:51:14;47.13;;;21.38;;
46731;SDS011;32477;51.474;5.696;2022-12-07T00:53:41;51.65;;;22.77;;
46731;SDS011;32477;51.474;5.696;2022-12-07T00:56:08;48.70;;;21.27;;
46731;SDS011;32477;51.474;5.696;2022-12-07T00:58:35;51.17;;;22.00;;
46731;SDS011;32477;51.474;5.696;2022-12-07T01:01:01;49.25;;;22.70;;
46731;SDS011;32477;51.474;5.696;2022-12-07T01:03:28;55.22;;;21.85;;
46731;SDS011;32477;51.474;5.696;2022-12-07T01:05:57;51.97;;;21.67;;
46731;SDS011;32477;51.474;5.696;2022-12-07T01:08:23;60.72;;;22.90;;
46731;SDS011;32477;51.474;5.696;2022-12-07T01:10:57;61.67;;;22.92;;
46731;SDS011;32477;51.474;5.696;2022-12-07T01:13:28;45.40;;;22.02;;
46731;SDS011;32477;51.474;5.696;2022-12-07T01:15:55;45.22;;;22.40;;
46731;SDS011;32477;51.474;5.696;2022-12-07T01:18:23;55.67;;;23.58;;
46731;SDS011;32477;51.474;5.696;2022-12-07T01:20:59;53.30;;;23.23;;
46731;SDS011;32477;51.474;5.696;2022-12-07T01:23:38;49.10;;;23.20;;
46731;SDS011;32477;51.474;5.696;2022-12-07T01:26:05;60.35;;;22.08;;
46731;SDS011;32477;51.474;5.696;2022-12-07T01:28:35;53.22;;;21.55;;
46731;SDS011;32477;51.474;5.696;2022-12-07T01:31:02;48.63;;;22.60;;
46731;SDS011;32477;51.474;5.696;2022-12-07T01:33:36;61.85;;;23.02;;
46731;SDS011;32477;51.474;5.696;2022-12-07T01:38:49;54.22;;;20.83;;
46731;SDS011;32477;51.474;5.696;2022-12-07T01:41:17;42.95;;;21.52;;
46731;SDS011;32477;51.474;5.696;2022-12-07T01:46:33;42.10;;;20.70;;
46731;SDS011;32477;51.474;5.696;2022-12-07T01:48:59;45.47;;;20.05;;
46731;SDS011;32477;51.474;5.696;2022-12-07T01:51:25;42.03;;;19.30;;
46731;SDS011;32477;51.474;5.696;2022-12-07T01:53:52;38.97;;;18.30;;
46731;SDS011;32477;51.474;5.696;2022-12-07T01:56:18;48.83;;;20.70;;
46731;SDS011;32477;51.474;5.696;2022-12-07T01:58:49;45.08;;;18.00;;
46731;SDS011;32477;51.474;5.696;2022-12-07T02:01:16;48.85;;;18.85;;
46731;SDS011;32477;51.474;5.696;2022-12-07T02:03:42;53.90;;;18.42;;
46731;SDS011;32477;51.474;5.696;2022-12-07T02:06:10;41.17;;;17.35;;
46731;SDS011;32477;51.474;5.696;2022-12-07T02:08:41;51.15;;;18.92;;
46731;SDS011;32477;51.474;5.696;2022-12-07T02:11:08;47.30;;;18.73;;
46731;SDS011;32477;51.474;5.696;2022-12-07T02:13:35;49.42;;;19.27;;
46731;SDS011;32477;51.474;5.696;2022-12-07T02:29:26;42.40;;;18.67;;
46731;SDS011;32477;51.474;5.696;2022-12-07T02:37:38;58.20;;;20.10;;
46731;SDS011;32477;51.474;5.696;2022-12-07T02:42:50;43.20;;;17.98;;
46731;SDS011;32477;51.474;5.696;2022-12-07T02:45:43;44.55;;;18.73;;
46731;SDS011;32477;51.474;5.696;2022-12-07T02:48:11;49.38;;;17.80;;
46731;SDS011;32477;51.474;5.696;2022-12-07T02:50:43;42.30;;;19.70;;
46731;SDS011;32477;51.474;5.696;2022-12-07T02:53:32;49.78;;;18.83;;
46731;SDS011;32477;51.474;5.696;2022-12-07T02:59:17;48.42;;;18.92;;
46731;SDS011;32477;51.474;5.696;2022-12-07T03:02:28;57.83;;;20.70;;
46731;SDS011;32477;51.474;5.696;2022-12-07T03:08:13;55.08;;;20.75;;
46731;SDS011;32477;51.474;5.696;2022-12-07T03:10:58;49.70;;;20.23;;
46731;SDS011;32477;51.474;5.696;2022-12-07T03:13:29;56.55;;;22.20;;
46731;SDS011;32477;51.474;5.696;2022-12-07T03:16:09;47.00;;;20.67;;
46731;SDS011;32477;51.474;5.696;2022-12-07T03:18:42;45.13;;;20.65;;
46731;SDS011;32477;51.474;5.696;2022-12-07T03:21:15;44.97;;;20.55;;
46731;SDS011;32477;51.474;5.696;2022-12-07T03:23:45;50.28;;;20.75;;
46731;SDS011;32477;51.474;5.696;2022-12-07T03:26:15;56.40;;;21.38;;
46731;SDS011;32477;51.474;5.696;2022-12-07T03:28:45;56.85;;;21.55;;
46731;SDS011;32477;51.474;5.696;2022-12-07T03:31:26;58.22;;;22.50;;
46731;SDS011;32477;51.474;5.696;2022-12-07T03:34:02;50.15;;;21.92;;
46731;SDS011;32477;51.474;5.696;2022-12-07T03:36:39;57.08;;;22.63;;
46731;SDS011;32477;51.474;5.696;2022-12-07T03:41:56;64.38;;;21.45;;
46731;SDS011;32477;51.474;5.696;2022-12-07T03:44:24;48.80;;;20.48;;
46731;SDS011;32477;51.474;5.696;2022-12-07T03:54:54;49.15;;;18.05;;
46731;SDS011;32477;51.474;5.696;2022-12-07T03:57:27;32.45;;;16.50;;
46731;SDS011;32477;51.474;5.696;2022-12-07T03:59:55;46.97;;;18.10;;
46731;SDS011;32477;51.474;5.696;2022-12-07T04:02:23;47.67;;;17.50;;
46731;SDS011;32477;51.474;5.696;2022-12-07T04:04:50;55.00;;;19.25;;
46731;SDS011;32477;51.474;5.696;2022-12-07T04:07:15;44.10;;;19.35;;
46731;SDS011;32477;51.474;5.696;2022-12-07T04:09:41;39.28;;;18.13;;
46731;SDS011;32477;51.474;5.696;2022-12-07T04:12:07;38.55;;;16.85;;
46731;SDS011;32477;51.474;5.696;2022-12-07T04:14:32;54.92;;;17.05;;
46731;SDS011;32477;51.474;5.696;2022-12-07T04:16:58;39.65;;;16.45;;
46731;SDS011;32477;51.474;5.696;2022-12-07T04:19:25;37.13;;;17.60;;
46731;SDS011;32477;51.474;5.696;2022-12-07T04:21:57;46.67;;;16.67;;
46731;SDS011;32477;51.474;5.696;2022-12-07T04:24:24;42.08;;;16.38;;
46731;SDS011;32477;51.474;5.696;2022-12-07T04:26:50;40.72;;;16.75;;
46731;SDS011;32477;51.474;5.696;2022-12-07T04:29:16;36.90;;;16.02;;
46731;SDS011;32477;51.474;5.696;2022-12-07T04:31:43;35.45;;;16.80;;
46731;SDS011;32477;51.474;5.696;2022-12-07T04:34:10;35.15;;;15.25;;
46731;SDS011;32477;51.474;5.696;2022-12-07T04:36:36;30.45;;;14.98;;
46731;SDS011;32477;51.474;5.696;2022-12-07T04:39:03;38.70;;;14.23;;
46731;SDS011;32477;51.474;5.696;2022-12-07T04:41:29;34.88;;;13.95;;
46731;SDS011;32477;51.474;5.696;2022-12-07T04:43:55;35.85;;;15.00;;
46731;SDS011;32477;51.474;5.696;2022-12-07T04:46:23;29.30;;;13.50;;
46731;SDS011;32477;51.474;5.696;2022-12-07T04:48:50;28.95;;;12.82;;
46731;SDS011;32477;51.474;5.696;2022-12-07T04:51:18;45.58;;;14.45;;
46731;SDS011;32477;51.474;5.696;2022-12-07T04:53:46;41.10;;;14.00;;
46731;SDS011;32477;51.474;5.696;2022-12-07T04:56:11;35.80;;;12.07;;
46731;SDS011;32477;51.474;5.696;2022-12-07T04:58:38;36.28;;;14.45;;
46731;SDS011;32477;51.474;5.696;2022-12-07T05:01:04;40.42;;;13.65;;
46731;SDS011;32477;51.474;5.696;2022-12-07T05:03:29;37.83;;;13.15;;
46731;SDS011;32477;51.474;5.696;2022-12-07T05:05:55;34.53;;;14.05;;
46731;SDS011;32477;51.474;5.696;2022-12-07T05:08:20;30.70;;;13.48;;
46731;SDS011;32477;51.474;5.696;2022-12-07T05:10:47;33.20;;;14.15;;
46731;SDS011;32477;51.474;5.696;2022-12-07T05:13:13;45.75;;;13.02;;
46731;SDS011;32477;51.474;5.696;2022-12-07T05:15:39;41.78;;;13.40;;
46731;SDS011;32477;51.474;5.696;2022-12-07T05:18:08;30.80;;;13.50;;
46731;SDS011;32477;51.474;5.696;2022-12-07T05:20:34;38.83;;;14.32;;
46731;SDS011;32477;51.474;5.696;2022-12-07T05:23:00;33.40;;;12.35;;
46731;SDS011;32477;51.474;5.696;2022-12-07T05:25:25;35.78;;;13.27;;
46731;SDS011;32477;51.474;5.696;2022-12-07T05:27:51;32.25;;;12.13;;
46731;SDS011;32477;51.474;5.696;2022-12-07T05:30:17;41.92;;;14.00;;
46731;SDS011;32477;51.474;5.696;2022-12-07T05:32:42;30.60;;;12.35;;
46731;SDS011;32477;51.474;5.696;2022-12-07T05:35:08;32.45;;;13.63;;
46731;SDS011;32477;51.474;5.696;2022-12-07T05:37:34;37.25;;;13.68;;
46731;SDS011;32477;51.474;5.696;2022-12-07T05:40:00;27.63;;;13.15;;
46731;SDS011;32477;51.474;5.696;2022-12-07T05:42:26;35.95;;;13.43;;
46731;SDS011;32477;51.474;5.696;2022-12-07T05:44:51;39.85;;;14.10;;
46731;SDS011;32477;51.474;5.696;2022-12-07T05:47:17;37.72;;;13.45;;
46731;SDS011;32477;51.474;5.696;2022-12-07T05:49:42;49.17;;;14.90;;
46731;SDS011;32477;51.474;5.696;2022-12-07T05:52:08;50.47;;;14.80;;
46731;SDS011;32477;51.474;5.696;2022-12-07T05:54:34;33.90;;;14.88;;
46731;SDS011;32477;51.474;5.696;2022-12-07T05:56:59;50.25;;;14.70;;
46731;SDS011;32477;51.474;5.696;2022-12-07T05:59:25;36.85;;;15.27;;
46731;SDS011;32477;51.474;5.696;2022-12-07T06:01:53;43.50;;;15.65;;
46731;SDS011;32477;51.474;5.696;2022-12-07T06:04:21;44.22;;;16.83;;
46731;SDS011;32477;51.474;5.696;2022-12-07T06:06:48;54.13;;;16.83;;
46731;SDS011;32477;51.474;5.696;2022-12-07T06:09:14;45.50;;;15.35;;
46731;SDS011;32477;51.474;5.696;2022-12-07T06:11:40;45.53;;;16.02;;
46731;SDS011;32477;51.474;5.696;2022-12-07T06:14:25;48.67;;;16.35;;
46731;SDS011;32477;51.474;5.696;2022-12-07T06:16:50;45.83;;;17.23;;
46731;SDS011;32477;51.474;5.696;2022-12-07T06:19:16;62.55;;;19.63;;
46731;SDS011;32477;51.474;5.696;2022-12-07T06:21:42;54.92;;;19.75;;
46731;SDS011;32477;51.474;5.696;2022-12-07T06:24:08;56.58;;;19.55;;
46731;SDS011;32477;51.474;5.696;2022-12-07T06:26:38;51.72;;;18.83;;
46731;SDS011;32477;51.474;5.696;2022-12-07T06:29:04;55.55;;;20.10;;
46731;SDS011;32477;51.474;5.696;2022-12-07T06:31:30;53.72;;;18.27;;
46731;SDS011;32477;51.474;5.696;2022-12-07T06:33:57;56.83;;;18.30;;
46731;SDS011;32477;51.474;5.696;2022-12-07T06:36:27;52.83;;;18.20;;
46731;SDS011;32477;51.474;5.696;2022-12-07T06:38:54;60.45;;;18.58;;
46731;SDS011;32477;51.474;5.696;2022-12-07T06:41:20;58.65;;;17.95;;
46731;SDS011;32477;51.474;5.696;2022-12-07T06:43:46;60.40;;;20.52;;
46731;SDS011;32477;51.474;5.696;2022-12-07T06:46:12;51.70;;;18.10;;
46731;SDS011;32477;51.474;5.696;2022-12-07T06:48:39;55.03;;;17.33;;
46731;SDS011;32477;51.474;5.696;2022-12-07T06:51:04;68.05;;;17.02;;
46731;SDS011;32477;51.474;5.696;2022-12-07T06:53:30;56.05;;;17.88;;
46731;SDS011;32477;51.474;5.696;2022-12-07T06:55:56;57.97;;;18.23;;
46731;SDS011;32477;51.474;5.696;2022-12-07T06:58:21;51.72;;;18.55;;
46731;SDS011;32477;51.474;5.696;2022-12-07T07:00:47;45.08;;;16.98;;
46731;SDS011;32477;51.474;5.696;2022-12-07T07:03:14;50.30;;;17.10;;
46731;SDS011;32477;51.474;5.696;2022-12-07T07:05:40;56.53;;;17.08;;
46731;SDS011;32477;51.474;5.696;2022-12-07T07:08:06;51.47;;;17.13;;
46731;SDS011;32477;51.474;5.696;2022-12-07T07:10:32;49.38;;;17.30;;
46731;SDS011;32477;51.474;5.696;2022-12-07T07:12:58;49.33;;;17.58;;
46731;SDS011;32477;51.474;5.696;2022-12-07T07:15:24;49.45;;;17.15;;
46731;SDS011;32477;51.474;5.696;2022-12-07T07:17:49;59.47;;;16.13;;
46731;SDS011;32477;51.474;5.696;2022-12-07T07:20:15;55.17;;;16.65;;
46731;SDS011;32477;51.474;5.696;2022-12-07T07:22:41;41.78;;;15.25;;
46731;SDS011;32477;51.474;5.696;2022-12-07T07:25:06;38.63;;;15.40;;
46731;SDS011;32477;51.474;5.696;2022-12-07T07:27:32;43.78;;;16.05;;
46731;SDS011;32477;51.474;5.696;2022-12-07T07:29:58;42.95;;;15.63;;
46731;SDS011;32477;51.474;5.696;2022-12-07T07:32:23;39.92;;;15.05;;
46731;SDS011;32477;51.474;5.696;2022-12-07T07:34:49;41.20;;;16.33;;
46731;SDS011;32477;51.474;5.696;2022-12-07T07:37:14;53.92;;;15.05;;
46731;SDS011;32477;51.474;5.696;2022-12-07T07:39:40;45.03;;;16.55;;
46731;SDS011;32477;51.474;5.696;2022-12-07T07:42:06;55.38;;;15.93;;
46731;SDS011;32477;51.474;5.696;2022-12-07T07:44:32;44.58;;;15.65;;
46731;SDS011;32477;51.474;5.696;2022-12-07T07:46:58;48.15;;;15.23;;
46731;SDS011;32477;51.474;5.696;2022-12-07T07:49:24;45.22;;;15.55;;
46731;SDS011;32477;51.474;5.696;2022-12-07T07:51:50;49.85;;;16.92;;
46731;SDS011;32477;51.474;5.696;2022-12-07T07:54:16;43.15;;;15.52;;
46731;SDS011;32477;51.474;5.696;2022-12-07T07:56:41;38.53;;;15.68;;
46731;SDS011;32477;51.474;5.696;2022-12-07T07:59:07;51.78;;;16.60;;
46731;SDS011;32477;51.474;5.696;2022-12-07T08:01:33;42.63;;;15.52;;
46731;SDS011;32477;51.474;5.696;2022-12-07T08:03:59;44.13;;;15.45;;
46731;SDS011;32477;51.474;5.696;2022-12-07T08:06:24;46.60;;;16.55;;
46731;SDS011;32477;51.474;5.696;2022-12-07T08:08:50;43.70;;;16.25;;
46731;SDS011;32477;51.474;5.696;2022-12-07T08:11:16;47.72;;;17.08;;
46731;SDS011;32477;51.474;5.696;2022-12-07T08:13:44;39.10;;;15.85;;
46731;SDS011;32477;51.474;5.696;2022-12-07T08:16:11;44.55;;;14.82;;
46731;SDS011;32477;51.474;5.696;2022-12-07T08:18:38;48.15;;;16.33;;
46731;SDS011;32477;51.474;5.696;2022-12-07T08:21:05;38.47;;;16.10;;
46731;SDS011;32477;51.474;5.696;2022-12-07T08:23:32;42.42;;;15.48;;
46731;SDS011;32477;51.474;5.696;2022-12-07T08:26:09;40.60;;;15.40;;
46731;SDS011;32477;51.474;5.696;2022-12-07T08:28:36;36.70;;;15.73;;
46731;SDS011;32477;51.474;5.696;2022-12-07T08:31:06;39.38;;;15.57;;
46731;SDS011;32477;51.474;5.696;2022-12-07T08:33:34;42.03;;;15.98;;
46731;SDS011;32477;51.474;5.696;2022-12-07T08:36:03;45.13;;;17.42;;
46731;SDS011;32477;51.474;5.696;2022-12-07T08:38:31;44.33;;;16.45;;
46731;SDS011;32477;51.474;5.696;2022-12-07T08:40:58;45.63;;;16.40;;
46731;SDS011;32477;51.474;5.696;2022-12-07T08:43:24;42.92;;;15.07;;
46731;SDS011;32477;51.474;5.696;2022-12-07T08:45:53;43.38;;;17.08;;
46731;SDS011;32477;51.474;5.696;2022-12-07T08:48:28;45.72;;;16.15;;
46731;SDS011;32477;51.474;5.696;2022-12-07T08:50:55;48.13;;;15.82;;
46731;SDS011;32477;51.474;5.696;2022-12-07T08:53:21;45.72;;;16.40;;
46731;SDS011;32477;51.474;5.696;2022-12-07T08:55:47;42.10;;;15.27;;
46731;SDS011;32477;51.474;5.696;2022-12-07T08:58:13;48.65;;;15.75;;
46731;SDS011;32477;51.474;5.696;2022-12-07T09:00:39;39.13;;;15.15;;
46731;SDS011;32477;51.474;5.696;2022-12-07T09:03:05;40.92;;;15.10;;
46731;SDS011;32477;51.474;5.696;2022-12-07T09:05:31;34.25;;;14.20;;
46731;SDS011;32477;51.474;5.696;2022-12-07T09:08:00;38.50;;;13.48;;
46731;SDS011;32477;51.474;5.696;2022-12-07T09:10:27;27.15;;;13.43;;
46731;SDS011;32477;51.474;5.696;2022-12-07T09:12:53;28.60;;;13.25;;
46731;SDS011;32477;51.474;5.696;2022-12-07T09:15:19;43.80;;;14.38;;
46731;SDS011;32477;51.474;5.696;2022-12-07T09:17:45;40.58;;;12.65;;
46731;SDS011;32477;51.474;5.696;2022-12-07T09:20:10;33.90;;;12.25;;
46731;SDS011;32477;51.474;5.696;2022-12-07T09:22:36;23.98;;;11.68;;
46731;SDS011;32477;51.474;5.696;2022-12-07T09:25:03;31.58;;;11.57;;
46731;SDS011;32477;51.474;5.696;2022-12-07T09:27:29;37.38;;;10.85;;
46731;SDS011;32477;51.474;5.696;2022-12-07T09:29:55;23.67;;;11.18;;
46731;SDS011;32477;51.474;5.696;2022-12-07T09:32:21;29.20;;;10.68;;
46731;SDS011;32477;51.474;5.696;2022-12-07T09:34:47;30.52;;;9.63;;
46731;SDS011;32477;51.474;5.696;2022-12-07T09:37:13;24.10;;;7.93;;
46731;SDS011;32477;51.474;5.696;2022-12-07T09:39:39;28.85;;;9.00;;
46731;SDS011;32477;51.474;5.696;2022-12-07T09:42:06;22.70;;;9.20;;
46731;SDS011;32477;51.474;5.696;2022-12-07T09:44:33;33.90;;;8.65;;
46731;SDS011;32477;51.474;5.696;2022-12-07T09:46:59;21.48;;;8.10;;
46731;SDS011;32477;51.474;5.696;2022-12-07T09:49:30;26.73;;;8.77;;
46731;SDS011;32477;51.474;5.696;2022-12-07T09:52:00;22.98;;;8.50;;
46731;SDS011;32477;51.474;5.696;2022-12-07T09:54:34;26.58;;;8.40;;
46731;SDS011;32477;51.474;5.696;2022-12-07T09:57:02;27.48;;;7.68;;
46731;SDS011;32477;51.474;5.696;2022-12-07T09:59:28;20.60;;;7.20;;
46731;SDS011;32477;51.474;5.696;2022-12-07T10:01:54;24.17;;;7.13;;
46731;SDS011;32477;51.474;5.696;2022-12-07T10:04:21;19.95;;;7.30;;
46731;SDS011;32477;51.474;5.696;2022-12-07T10:06:49;16.38;;;6.72;;
46731;SDS011;32477;51.474;5.696;2022-12-07T10:09:17;18.45;;;6.85;;
46731;SDS011;32477;51.474;5.696;2022-12-07T10:12:00;20.90;;;6.97;;
46731;SDS011;32477;51.474;5.696;2022-12-07T10:14:37;16.20;;;5.93;;
46731;SDS011;32477;51.474;5.696;2022-12-07T10:20:18;14.40;;;6.63;;
46731;SDS011;32477;51.474;5.696;2022-12-07T10:22:58;13.40;;;4.25;;
46731;SDS011;32477;51.474;5.696;2022-12-07T10:25:38;11.18;;;4.07;;
46731;SDS011;32477;51.474;5.696;2022-12-07T10:30:56;14.63;;;4.38;;
46731;SDS011;32477;51.474;5.696;2022-12-07T10:33:37;6.70;;;3.08;;
46731;SDS011;32477;51.474;5.696;2022-12-07T10:36:20;12.38;;;3.17;;
46731;SDS011;32477;51.474;5.696;2022-12-07T10:39:10;12.60;;;4.90;;
46731;SDS011;32477;51.474;5.696;2022-12-07T10:44:27;10.75;;;2.28;;
46731;SDS011;32477;51.474;5.696;2022-12-07T11:03:43;9.75;;;2.65;;
46731;SDS011;32477;51.474;5.696;2022-12-07T11:11:23;10.73;;;2.33;;
46731;SDS011;32477;51.474;5.696;2022-12-07T11:17:18;18.27;;;4.13;;
46731;SDS011;32477;51.474;5.696;2022-12-07T11:33:29;12.07;;;2.33;;
46731;SDS011;32477;51.474;5.696;2022-12-07T11:39:14;8.15;;;1.80;;
46731;SDS011;32477;51.474;5.696;2022-12-07T11:41:45;2.83;;;1.38;;
46731;SDS011;32477;51.474;5.696;2022-12-07T11:44:36;10.23;;;1.90;;
46731;SDS011;32477;51.474;5.696;2022-12-07T11:47:08;8.57;;;1.80;;
46731;SDS011;32477;51.474;5.696;2022-12-07T11:49:51;8.52;;;2.08;;
46731;SDS011;32477;51.474;5.696;2022-12-07T11:52:38;6.32;;;1.90;;
46731;SDS011;32477;51.474;5.696;2022-12-07T12:00:51;6.40;;;1.90;;
46731;SDS011;32477;51.474;5.696;2022-12-07T12:03:27;9.95;;;2.35;;
46731;SDS011;32477;51.474;5.696;2022-12-07T12:05:58;4.85;;;1.45;;
46731;SDS011;32477;51.474;5.696;2022-12-07T12:08:26;11.70;;;2.33;;
46731;SDS011;32477;51.474;5.696;2022-12-07T12:14:01;6.88;;;2.00;;
46731;SDS011;32477;51.474;5.696;2022-12-07T12:16:52;10.95;;;2.13;;
46731;SDS011;32477;51.474;5.696;2022-12-07T12:19:33;4.85;;;1.88;;
46731;SDS011;32477;51.474;5.696;2022-12-07T12:22:19;6.07;;;1.88;;
46731;SDS011;32477;51.474;5.696;2022-12-07T12:24:49;6.63;;;1.70;;
46731;SDS011;32477;51.474;5.696;2022-12-07T12:27:23;8.55;;;1.55;;
46731;SDS011;32477;51.474;5.696;2022-12-07T12:29:53;6.03;;;1.27;;
46731;SDS011;32477;51.474;5.696;2022-12-07T12:32:21;9.68;;;2.35;;
46731;SDS011;32477;51.474;5.696;2022-12-07T12:34:57;4.57;;;1.70;;
46731;SDS011;32477;51.474;5.696;2022-12-07T12:42:52;7.13;;;1.42;;
46731;SDS011;32477;51.474;5.696;2022-12-07T12:45:20;14.73;;;1.73;;
46731;SDS011;32477;51.474;5.696;2022-12-07T12:47:54;6.43;;;1.77;;
46731;SDS011;32477;51.474;5.696;2022-12-07T12:50:21;7.97;;;1.73;;
46731;SDS011;32477;51.474;5.696;2022-12-07T12:53:24;8.38;;;1.88;;
46731;SDS011;32477;51.474;5.696;2022-12-07T12:58:39;8.85;;;1.60;;
46731;SDS011;32477;51.474;5.696;2022-12-07T13:03:55;6.60;;;1.98;;
46731;SDS011;32477;51.474;5.696;2022-12-07T13:08:52;7.15;;;1.20;;
46731;SDS011;32477;51.474;5.696;2022-12-07T13:11:37;7.05;;;1.50;;
46731;SDS011;32477;51.474;5.696;2022-12-07T13:19:56;3.83;;;1.00;;
46731;SDS011;32477;51.474;5.696;2022-12-07T13:28:02;5.05;;;1.00;;
46731;SDS011;32477;51.474;5.696;2022-12-07T13:36:22;6.18;;;0.90;;
46731;SDS011;32477;51.474;5.696;2022-12-07T13:38:57;8.23;;;1.17;;
46731;SDS011;32477;51.474;5.696;2022-12-07T13:41:28;5.85;;;1.10;;
46731;SDS011;32477;51.474;5.696;2022-12-07T13:44:01;3.92;;;0.90;;
46731;SDS011;32477;51.474;5.696;2022-12-07T13:46:50;9.20;;;1.13;;
46731;SDS011;32477;51.474;5.696;2022-12-07T13:49:47;10.50;;;1.00;;
46731;SDS011;32477;51.474;5.696;2022-12-07T13:52:23;1.75;;;0.77;;
46731;SDS011;32477;51.474;5.696;2022-12-07T13:57:31;4.95;;;1.05;;
46731;SDS011;32477;51.474;5.696;2022-12-07T14:00:00;4.20;;;1.20;;
46731;SDS011;32477;51.474;5.696;2022-12-07T14:02:30;10.55;;;1.10;;
46731;SDS011;32477;51.474;5.696;2022-12-07T14:07:34;11.70;;;1.55;;
46731;SDS011;32477;51.474;5.696;2022-12-07T14:10:03;3.55;;;1.27;;
46731;SDS011;32477;51.474;5.696;2022-12-07T14:12:30;3.50;;;1.20;;
46731;SDS011;32477;51.474;5.696;2022-12-07T14:14:58;7.15;;;1.33;;
46731;SDS011;32477;51.474;5.696;2022-12-07T14:17:26;5.25;;;1.52;;
46731;SDS011;32477;51.474;5.696;2022-12-07T14:22:34;4.13;;;1.25;;
46731;SDS011;32477;51.474;5.696;2022-12-07T14:27:51;6.55;;;1.90;;
46731;SDS011;32477;51.474;5.696;2022-12-07T14:30:20;3.58;;;1.63;;
46731;SDS011;32477;51.474;5.696;2022-12-07T14:32:46;11.27;;;2.03;;
46731;SDS011;32477;51.474;5.696;2022-12-07T14:35:16;4.13;;;1.73;;
46731;SDS011;32477;51.474;5.696;2022-12-07T14:37:44;4.90;;;1.85;;
46731;SDS011;32477;51.474;5.696;2022-12-07T14:40:16;9.82;;;2.30;;
46731;SDS011;32477;51.474;5.696;2022-12-07T14:42:45;13.68;;;2.38;;
46731;SDS011;32477;51.474;5.696;2022-12-07T14:45:14;11.50;;;1.77;;
46731;SDS011;32477;51.474;5.696;2022-12-07T14:47:42;6.72;;;1.70;;
46731;SDS011;32477;51.474;5.696;2022-12-07T14:50:10;9.20;;;1.80;;
46731;SDS011;32477;51.474;5.696;2022-12-07T14:52:37;12.32;;;1.63;;
46731;SDS011;32477;51.474;5.696;2022-12-07T14:55:04;3.60;;;1.60;;
46731;SDS011;32477;51.474;5.696;2022-12-07T14:57:30;8.35;;;1.58;;
46731;SDS011;32477;51.474;5.696;2022-12-07T14:59:56;6.75;;;2.05;;
46731;SDS011;32477;51.474;5.696;2022-12-07T15:02:21;4.45;;;1.67;;
46731;SDS011;32477;51.474;5.696;2022-12-07T15:04:47;10.43;;;1.67;;
46731;SDS011;32477;51.474;5.696;2022-12-07T15:07:15;6.75;;;1.90;;
46731;SDS011;32477;51.474;5.696;2022-12-07T15:09:45;8.02;;;1.88;;
46731;SDS011;32477;51.474;5.696;2022-12-07T15:12:11;5.18;;;2.13;;
46731;SDS011;32477;51.474;5.696;2022-12-07T15:14:36;10.38;;;2.58;;
46731;SDS011;32477;51.474;5.696;2022-12-07T15:17:05;5.05;;;2.22;;
46731;SDS011;32477;51.474;5.696;2022-12-07T15:19:31;13.98;;;2.25;;
46731;SDS011;32477;51.474;5.696;2022-12-07T15:21:57;8.00;;;2.03;;
46731;SDS011;32477;51.474;5.696;2022-12-07T15:24:24;11.85;;;2.13;;
46731;SDS011;32477;51.474;5.696;2022-12-07T15:26:50;9.07;;;2.20;;
46731;SDS011;32477;51.474;5.696;2022-12-07T15:29:17;7.43;;;2.60;;
46731;SDS011;32477;51.474;5.696;2022-12-07T15:31:42;8.65;;;2.65;;
46731;SDS011;32477;51.474;5.696;2022-12-07T15:34:08;22.92;;;3.00;;
46731;SDS011;32477;51.474;5.696;2022-12-07T15:36:34;14.10;;;3.42;;
46731;SDS011;32477;51.474;5.696;2022-12-07T15:39:00;5.40;;;2.65;;
46731;SDS011;32477;51.474;5.696;2022-12-07T15:41:26;9.95;;;2.78;;
46731;SDS011;32477;51.474;5.696;2022-12-07T15:43:52;10.50;;;3.22;;
46731;SDS011;32477;51.474;5.696;2022-12-07T15:46:38;7.88;;;3.28;;
46731;SDS011;32477;51.474;5.696;2022-12-07T15:49:16;11.32;;;2.97;;
46731;SDS011;32477;51.474;5.696;2022-12-07T15:51:43;8.13;;;3.55;;
46731;SDS011;32477;51.474;5.696;2022-12-07T15:54:20;13.88;;;3.22;;
46731;SDS011;32477;51.474;5.696;2022-12-07T15:56:50;10.27;;;3.95;;
46731;SDS011;32477;51.474;5.696;2022-12-07T15:59:16;6.35;;;3.38;;
46731;SDS011;32477;51.474;5.696;2022-12-07T16:01:41;13.95;;;4.43;;
46731;SDS011;32477;51.474;5.696;2022-12-07T16:04:08;13.50;;;4.18;;
46731;SDS011;32477;51.474;5.696;2022-12-07T16:06:34;8.77;;;4.60;;
46731;SDS011;32477;51.474;5.696;2022-12-07T16:08:59;9.40;;;4.35;;
46731;SDS011;32477;51.474;5.696;2022-12-07T16:11:25;10.02;;;4.97;;
46731;SDS011;32477;51.474;5.696;2022-12-07T16:13:51;10.95;;;4.63;;
46731;SDS011;32477;51.474;5.696;2022-12-07T16:16:18;10.07;;;4.63;;
46731;SDS011;32477;51.474;5.696;2022-12-07T16:18:44;15.15;;;4.85;;
46731;SDS011;32477;51.474;5.696;2022-12-07T16:21:14;7.78;;;4.47;;
46731;SDS011;32477;51.474;5.696;2022-12-07T16:23:41;11.27;;;4.80;;
46731;SDS011;32477;51.474;5.696;2022-12-07T16:26:08;13.32;;;4.50;;
46731;SDS011;32477;51.474;5.696;2022-12-07T16:28:37;11.55;;;4.63;;
46731;SDS011;32477;51.474;5.696;2022-12-07T16:31:13;7.28;;;4.13;;
46731;SDS011;32477;51.474;5.696;2022-12-07T16:33:40;7.03;;;4.18;;
46731;SDS011;32477;51.474;5.696;2022-12-07T16:36:07;9.73;;;4.05;;
46731;SDS011;32477;51.474;5.696;2022-12-07T16:38:35;11.68;;;3.95;;
46731;SDS011;32477;51.474;5.696;2022-12-07T16:41:01;9.35;;;3.70;;
46731;SDS011;32477;51.474;5.696;2022-12-07T16:43:26;10.82;;;4.22;;
46731;SDS011;32477;51.474;5.696;2022-12-07T16:45:52;11.05;;;3.60;;
46731;SDS011;32477;51.474;5.696;2022-12-07T16:48:18;14.07;;;4.53;;
46731;SDS011;32477;51.474;5.696;2022-12-07T16:50:44;9.25;;;3.65;;
46731;SDS011;32477;51.474;5.696;2022-12-07T16:53:11;6.80;;;3.67;;
46731;SDS011;32477;51.474;5.696;2022-12-07T16:55:41;10.95;;;4.03;;
46731;SDS011;32477;51.474;5.696;2022-12-07T16:58:08;7.40;;;4.20;;
46731;SDS011;32477;51.474;5.696;2022-12-07T17:00:35;12.02;;;4.15;;
46731;SDS011;32477;51.474;5.696;2022-12-07T17:03:01;140.30;;;54.47;;
46731;SDS011;32477;51.474;5.696;2022-12-07T17:05:28;96.05;;;41.00;;